Queanbeyan, Australia
Current Conditions -  °F | °C
As of 12:00 PM on Saturday 29 Nov 2014 (Local Time) from YSCB Reporting Station
Scattered Clouds Scattered Clouds  
Wind Chill: 77°   Ceiling: Unl
Heat Index: 78°   Visibility: 6mi
Dew Point: 50°   Wind: 6mph
Humidity: 39%   Direction: 330°NNW
Pressure: 30.03"   Gusts: NA
Location:  35.35°S, 149.23°E
Report Text: YSCB 290100Z 33005KT 9999 FEW050 SCT210 25/10 Q1017 NOSIG
Loading
Personal Weather Stations






























Interactive Weather Map New forecast layout! Learn more

10-Day Weather Forecast

Advertisements
Track Severe Weather on mobile